createdAt,value
2018-12-16T00:01:28.212Z,16.70
2018-12-16T00:03:55.797Z,20.70
2018-12-16T00:06:23.567Z,27.50
2018-12-16T00:08:51.483Z,27.85
2018-12-16T00:11:19.265Z,18.32
2018-12-16T00:13:47.156Z,23.42
2018-12-16T00:16:14.904Z,12.43
2018-12-16T00:18:42.547Z,21.37
2018-12-16T00:21:10.155Z,19.92
2018-12-16T00:23:37.709Z,29.77
2018-12-16T00:26:05.453Z,21.17
2018-12-16T00:28:33.174Z,24.80
2018-12-16T00:31:01.039Z,20.25
2018-12-16T00:33:28.881Z,24.57
2018-12-16T00:36:03.763Z,17.30
2018-12-16T00:38:31.579Z,21.27
2018-12-16T00:40:59.533Z,25.52
2018-12-16T00:43:27.072Z,21.40
2018-12-16T00:45:54.578Z,31.50
2018-12-16T00:48:22.337Z,32.58
2018-12-16T00:50:49.978Z,31.40
2018-12-16T00:53:17.912Z,31.40
2018-12-16T00:55:45.504Z,16.73
2018-12-16T00:58:13.302Z,24.30
2018-12-16T01:00:40.836Z,30.20
2018-12-16T01:03:08.716Z,32.00
2018-12-16T01:05:37.228Z,27.00
2018-12-16T01:08:04.916Z,17.25
2018-12-16T01:10:32.784Z,24.67
2018-12-16T01:13:00.595Z,19.42
2018-12-16T01:15:28.332Z,29.37
2018-12-16T01:17:55.973Z,25.05
2018-12-16T01:20:23.937Z,22.22
2018-12-16T01:22:51.698Z,23.22
2018-12-16T01:25:19.739Z,24.77
2018-12-16T01:27:48.672Z,21.55
2018-12-16T01:30:16.256Z,20.62
2018-12-16T01:32:44.219Z,21.42
2018-12-16T01:35:12.263Z,22.50
2018-12-16T01:37:39.848Z,33.78
2018-12-16T01:40:07.934Z,21.20
2018-12-16T01:42:35.546Z,31.35
2018-12-16T01:45:03.494Z,26.65
2018-12-16T01:47:31.240Z,17.07
2018-12-16T01:49:58.782Z,24.27
2018-12-16T01:52:26.400Z,26.80
2018-12-16T01:54:54.108Z,27.65
2018-12-16T01:57:21.630Z,21.07
2018-12-16T01:59:49.429Z,31.90
2018-12-16T02:02:17.060Z,15.55
2018-12-16T02:04:44.908Z,25.23
2018-12-16T02:07:12.564Z,24.60
2018-12-16T02:09:40.151Z,33.60
2018-12-16T02:12:08.116Z,23.30
2018-12-16T02:14:35.820Z,35.40
2018-12-16T02:17:03.434Z,21.40
2018-12-16T02:19:30.994Z,37.48
2018-12-16T02:21:58.770Z,21.35
2018-12-16T02:24:26.289Z,19.07
2018-12-16T02:26:54.076Z,41.10
2018-12-16T02:29:21.669Z,22.37
2018-12-16T02:31:49.604Z,33.33
2018-12-16T02:34:17.684Z,25.57
2018-12-16T02:36:46.328Z,22.48
2018-12-16T02:39:13.799Z,41.40
2018-12-16T02:41:41.518Z,41.35
2018-12-16T02:44:09.014Z,35.38
2018-12-16T02:46:37.487Z,30.62
2018-12-16T02:49:05.097Z,23.62
2018-12-16T02:51:32.650Z,36.35
2018-12-16T02:54:00.091Z,27.85
2018-12-16T02:56:27.657Z,43.40
2018-12-16T02:58:55.904Z,47.17
2018-12-16T03:01:23.433Z,37.17
2018-12-16T03:03:50.955Z,39.53
2018-12-16T03:06:18.498Z,21.40
2018-12-16T03:08:47.711Z,29.75
2018-12-16T03:11:15.467Z,27.80
2018-12-16T03:13:43.109Z,31.25
2018-12-16T03:16:10.552Z,28.20
2018-12-16T03:18:38.157Z,44.75
2018-12-16T03:21:06.047Z,24.15
2018-12-16T03:23:33.552Z,25.45
2018-12-16T03:26:01.051Z,39.85
2018-12-16T03:28:28.674Z,48.30
2018-12-16T03:30:56.411Z,36.38
2018-12-16T03:33:24.061Z,27.02
2018-12-16T03:35:51.491Z,24.27
2018-12-16T03:38:19.159Z,34.10
2018-12-16T03:40:46.653Z,34.40
2018-12-16T03:43:14.323Z,43.90
2018-12-16T03:45:41.893Z,46.18
2018-12-16T03:48:09.599Z,46.02
2018-12-16T03:50:37.213Z,37.55
2018-12-16T03:53:04.762Z,35.65
2018-12-16T03:55:32.568Z,45.10
2018-12-16T03:58:00.077Z,52.40
2018-12-16T04:00:27.677Z,29.70
2018-12-16T04:02:55.422Z,34.75
2018-12-16T04:05:23.062Z,39.25
2018-12-16T04:07:50.675Z,29.77
2018-12-16T04:10:19.181Z,51.23
2018-12-16T04:12:46.698Z,32.15
2018-12-16T04:15:15.020Z,36.58
2018-12-16T04:17:42.959Z,32.00
2018-12-16T04:20:10.483Z,34.58
2018-12-16T04:22:38.110Z,39.98
2018-12-16T04:25:05.990Z,44.38
2018-12-16T04:27:33.571Z,51.37
2018-12-16T04:30:01.124Z,43.45
2018-12-16T04:32:28.729Z,32.30
2018-12-16T04:34:56.457Z,34.18
2018-12-16T04:37:23.986Z,38.80
2018-12-16T04:39:51.437Z,40.08
2018-12-16T04:42:19.951Z,59.35
2018-12-16T04:44:47.396Z,53.92
2018-12-16T04:47:14.933Z,48.92
2018-12-16T04:49:42.418Z,49.77
2018-12-16T04:52:09.955Z,52.00
2018-12-16T04:54:37.774Z,56.60
2018-12-16T04:57:05.364Z,39.55
2018-12-16T04:59:32.823Z,31.10
2018-12-16T05:02:00.379Z,34.92
2018-12-16T05:04:28.225Z,30.37
2018-12-16T05:06:55.857Z,42.13
2018-12-16T05:09:23.465Z,44.70
2018-12-16T05:11:51.152Z,44.88
2018-12-16T05:14:18.915Z,37.03
2018-12-16T05:16:46.484Z,43.45
2018-12-16T05:19:14.122Z,24.90
2018-12-16T05:21:41.667Z,32.93
2018-12-16T05:24:09.248Z,42.08
2018-12-16T05:26:36.751Z,50.78
2018-12-16T05:29:04.403Z,45.17
2018-12-16T05:31:31.874Z,26.23
2018-12-16T05:33:59.456Z,36.88
2018-12-16T05:36:27.077Z,44.65
2018-12-16T05:38:54.696Z,28.25
2018-12-16T05:41:22.223Z,29.23
2018-12-16T05:43:49.909Z,44.53
2018-12-16T05:46:18.262Z,37.38
2018-12-16T05:48:45.947Z,31.35
2018-12-16T05:51:13.743Z,28.98
2018-12-16T05:53:41.300Z,32.13
2018-12-16T05:56:08.887Z,26.73
2018-12-16T05:58:36.419Z,28.47
2018-12-16T06:01:04.311Z,36.50
2018-12-16T06:03:32.379Z,42.17
2018-12-16T06:06:00.090Z,33.10
2018-12-16T06:08:27.720Z,21.07
2018-12-16T06:10:55.326Z,26.12
2018-12-16T06:13:22.980Z,32.65
2018-12-16T06:15:50.501Z,45.33
2018-12-16T06:18:18.115Z,30.52
2018-12-16T06:20:45.583Z,33.30
2018-12-16T06:23:13.081Z,40.38
2018-12-16T06:25:40.726Z,33.85
2018-12-16T06:28:08.632Z,24.55
2018-12-16T06:30:37.397Z,31.85
2018-12-16T06:33:05.189Z,29.25
2018-12-16T06:35:32.737Z,24.85
2018-12-16T06:38:00.405Z,35.98
2018-12-16T06:40:27.941Z,23.35
2018-12-16T06:42:55.541Z,30.57
2018-12-16T06:45:23.331Z,21.15
2018-12-16T06:47:50.912Z,27.82
2018-12-16T06:50:18.430Z,28.65
2018-12-16T06:52:45.989Z,26.60
2018-12-16T06:55:13.515Z,30.08
2018-12-16T06:57:41.784Z,39.73
2018-12-16T07:00:09.476Z,27.65
2018-12-16T07:02:37.100Z,24.15
2018-12-16T07:05:05.333Z,31.02
2018-12-16T07:07:32.833Z,28.10
2018-12-16T07:10:00.500Z,26.57
2018-12-16T07:12:28.176Z,29.20
2018-12-16T07:14:55.856Z,27.85
2018-12-16T07:17:23.312Z,40.30
2018-12-16T07:19:50.993Z,31.68
2018-12-16T07:22:18.792Z,27.13
2018-12-16T07:24:46.702Z,39.10
2018-12-16T07:27:14.195Z,27.17
2018-12-16T07:29:41.838Z,40.03
2018-12-16T07:32:09.674Z,23.38
2018-12-16T07:34:37.448Z,19.62
2018-12-16T07:37:05.012Z,18.07
2018-12-16T07:39:32.712Z,24.95
2018-12-16T07:42:00.165Z,37.42
2018-12-16T07:44:28.222Z,25.90
2018-12-16T07:46:55.933Z,37.95
2018-12-16T07:49:23.578Z,34.10
2018-12-16T07:51:51.469Z,27.42
2018-12-16T07:54:19.041Z,35.50
2018-12-16T07:56:46.476Z,39.73
2018-12-16T07:59:14.251Z,28.02
2018-12-16T08:01:43.138Z,25.65
2018-12-16T08:04:10.838Z,39.27
2018-12-16T08:06:38.390Z,34.25
2018-12-16T08:09:06.381Z,29.65
2018-12-16T08:11:34.450Z,25.05
2018-12-16T08:14:02.502Z,35.15
2018-12-16T08:16:34.325Z,25.60
2018-12-16T08:19:07.029Z,30.15
2018-12-16T08:21:31.713Z,39.78
2018-12-16T08:23:59.211Z,24.35
2018-12-16T08:26:27.035Z,19.95
2018-12-16T08:28:54.822Z,27.27
2018-12-16T08:31:22.610Z,39.70
2018-12-16T08:33:50.276Z,27.07
2018-12-16T08:36:18.477Z,40.03
2018-12-16T08:38:46.214Z,29.82
2018-12-16T08:41:13.783Z,32.83
2018-12-16T08:43:48.277Z,32.70
2018-12-16T08:46:16.136Z,26.93
2018-12-16T08:48:43.630Z,22.10
2018-12-16T08:51:11.057Z,36.40
2018-12-16T08:53:38.516Z,25.85
2018-12-16T08:56:06.089Z,25.57
2018-12-16T08:58:33.670Z,31.15
2018-12-16T09:01:01.220Z,38.00
2018-12-16T09:03:28.936Z,37.30
2018-12-16T09:05:56.368Z,20.12
2018-12-16T09:08:24.221Z,31.30
2018-12-16T09:10:52.050Z,36.95
2018-12-16T09:13:20.528Z,25.82
2018-12-16T09:15:48.043Z,38.35
2018-12-16T09:18:15.637Z,23.55
2018-12-16T09:20:43.045Z,39.92
2018-12-16T09:23:10.880Z,32.88
2018-12-16T09:25:38.782Z,36.23
2018-12-16T09:28:06.456Z,41.28
2018-12-16T09:30:33.929Z,39.80
2018-12-16T09:33:01.424Z,37.28
2018-12-16T09:35:29.047Z,31.73
2018-12-16T09:37:56.508Z,36.20
2018-12-16T09:40:24.007Z,31.17
2018-12-16T09:42:51.456Z,22.48
2018-12-16T09:45:19.031Z,39.85
2018-12-16T09:47:47.060Z,38.70
2018-12-16T09:50:14.800Z,41.58
2018-12-16T09:52:42.637Z,41.98
2018-12-16T09:55:10.395Z,44.53
2018-12-16T09:57:38.229Z,40.20
2018-12-16T10:00:08.056Z,42.85
2018-12-16T10:02:35.586Z,32.38
2018-12-16T10:05:03.420Z,40.00
2018-12-16T10:07:31.262Z,40.65
2018-12-16T10:09:58.856Z,31.97
2018-12-16T10:12:26.529Z,29.20
2018-12-16T10:14:54.034Z,18.42
2018-12-16T10:17:21.716Z,37.95
2018-12-16T10:19:49.597Z,39.00
2018-12-16T10:22:17.172Z,38.78
2018-12-16T10:24:51.087Z,38.10
2018-12-16T10:27:14.472Z,38.55
2018-12-16T10:29:42.054Z,35.43
2018-12-16T10:32:09.693Z,39.13
2018-12-16T10:34:37.564Z,36.00
2018-12-16T10:37:05.121Z,38.53
2018-12-16T10:39:32.590Z,39.42
2018-12-16T10:42:00.036Z,38.13
2018-12-16T10:44:27.484Z,37.75
2018-12-16T10:46:55.046Z,37.25
2018-12-16T10:49:22.580Z,36.23
2018-12-16T10:51:50.442Z,31.80
2018-12-16T10:54:18.267Z,38.65
2018-12-16T10:56:45.789Z,35.60
2018-12-16T10:59:13.314Z,38.10
2018-12-16T11:01:40.996Z,37.37
2018-12-16T11:04:08.541Z,41.40
2018-12-16T11:06:36.380Z,38.63
2018-12-16T11:09:04.894Z,36.42
2018-12-16T11:11:32.639Z,36.80
2018-12-16T11:14:00.385Z,30.45
2018-12-16T11:16:28.109Z,38.55
2018-12-16T11:18:55.876Z,40.65
2018-12-16T11:21:23.614Z,36.80
2018-12-16T11:23:53.955Z,35.50
2018-12-16T11:26:21.079Z,40.73
2018-12-16T11:28:48.782Z,34.27
2018-12-16T11:31:16.513Z,36.13
2018-12-16T11:33:44.353Z,39.83
2018-12-16T11:36:12.029Z,33.33
2018-12-16T11:38:40.148Z,35.85
2018-12-16T11:41:07.918Z,40.33
2018-12-16T11:43:35.828Z,38.90
2018-12-16T11:46:03.543Z,38.98
2018-12-16T11:48:31.195Z,38.88
2018-12-16T11:53:42.773Z,35.78
2018-12-16T11:56:10.392Z,34.25
2018-12-16T11:58:38.148Z,39.18
2018-12-16T12:01:06.041Z,36.33
2018-12-16T12:03:33.715Z,34.05
2018-12-16T12:06:01.275Z,36.80
2018-12-16T12:08:28.912Z,39.03
2018-12-16T12:10:56.453Z,42.53
2018-12-16T12:13:24.133Z,42.75
2018-12-16T12:15:51.687Z,38.40
2018-12-16T12:18:19.265Z,42.50
2018-12-16T12:20:46.649Z,41.85
2018-12-16T12:23:14.185Z,43.75
2018-12-16T12:25:41.746Z,41.75
2018-12-16T12:28:09.495Z,37.73
2018-12-16T12:30:36.984Z,37.28
2018-12-16T12:33:04.711Z,38.55
2018-12-16T12:35:32.255Z,35.52
2018-12-16T12:37:59.735Z,38.85
2018-12-16T12:40:27.251Z,36.40
2018-12-16T12:42:55.013Z,40.17
2018-12-16T12:45:22.549Z,39.40
2018-12-16T12:47:50.079Z,40.00
2018-12-16T12:50:17.583Z,42.90
2018-12-16T12:52:45.191Z,39.75
2018-12-16T12:55:12.693Z,33.02
2018-12-16T12:57:40.238Z,38.85
2018-12-16T13:00:11.498Z,37.28
2018-12-16T13:02:39.116Z,40.58
2018-12-16T13:05:06.859Z,43.50
2018-12-16T13:07:34.375Z,38.85
2018-12-16T13:10:01.875Z,38.88
2018-12-16T13:12:29.407Z,39.70
2018-12-16T13:14:56.931Z,39.70
2018-12-16T13:17:24.449Z,41.75
2018-12-16T13:19:51.926Z,36.25
2018-12-16T13:22:19.410Z,45.78
2018-12-16T13:24:58.312Z,37.35
2018-12-16T13:27:25.759Z,40.28
2018-12-16T13:29:53.232Z,42.65
2018-12-16T13:32:20.762Z,41.40
2018-12-16T13:34:48.279Z,28.65
2018-12-16T13:37:15.693Z,37.63
2018-12-16T13:39:43.196Z,43.70
2018-12-16T13:42:10.681Z,40.40
2018-12-16T13:44:38.174Z,44.53
2018-12-16T13:47:05.711Z,34.13
2018-12-16T13:49:33.219Z,43.05
2018-12-16T13:52:00.743Z,41.40
2018-12-16T13:54:28.196Z,46.08
2018-12-16T13:56:55.673Z,44.13
2018-12-16T13:59:23.181Z,40.33
2018-12-16T14:01:50.651Z,42.90
2018-12-16T14:04:18.122Z,42.38
2018-12-16T14:06:45.703Z,41.58
2018-12-16T14:09:14.607Z,39.65
2018-12-16T14:14:45.198Z,50.50
2018-12-16T14:17:12.854Z,45.95
2018-12-16T14:19:40.322Z,45.80
2018-12-16T14:22:08.101Z,42.55
2018-12-16T14:24:40.980Z,45.45
2018-12-16T14:27:09.412Z,43.60
2018-12-16T14:29:36.920Z,40.65
2018-12-16T14:32:04.439Z,39.25
2018-12-16T14:34:31.928Z,45.65
2018-12-16T14:36:59.641Z,49.53
2018-12-16T14:39:27.353Z,40.90
2018-12-16T14:41:54.808Z,43.78
2018-12-16T14:44:22.342Z,43.58
2018-12-16T14:46:49.779Z,46.00
2018-12-16T14:49:17.216Z,42.73
2018-12-16T14:51:44.677Z,45.95
2018-12-16T14:54:12.152Z,44.93
2018-12-16T14:56:39.634Z,44.63
2018-12-16T14:59:07.105Z,45.78
2018-12-16T15:01:34.853Z,46.37
2018-12-16T15:04:02.466Z,43.85
2018-12-16T15:06:29.961Z,44.98
2018-12-16T15:08:57.355Z,42.45
2018-12-16T15:11:24.815Z,45.17
2018-12-16T15:13:52.360Z,51.55
2018-12-16T15:16:19.874Z,47.93
2018-12-16T15:18:47.243Z,41.23
2018-12-16T15:21:14.725Z,50.17
2018-12-16T15:23:42.227Z,49.90
2018-12-16T15:26:09.710Z,51.55
2018-12-16T15:28:37.175Z,50.52
2018-12-16T15:31:04.687Z,42.20
2018-12-16T15:33:32.150Z,48.80
2018-12-16T15:35:59.629Z,49.40
2018-12-16T15:38:27.068Z,48.63
2018-12-16T15:40:54.695Z,45.43
2018-12-16T15:43:22.186Z,49.15
2018-12-16T15:45:49.655Z,45.10
2018-12-16T15:48:17.123Z,45.50
2018-12-16T15:50:44.575Z,48.95
2018-12-16T15:53:11.939Z,43.95
2018-12-16T15:55:39.423Z,51.83
2018-12-16T15:58:06.996Z,46.90
2018-12-16T16:00:34.437Z,48.58
2018-12-16T16:03:01.853Z,46.85
2018-12-16T16:05:35.949Z,46.28
2018-12-16T16:08:04.012Z,55.98
2018-12-16T16:10:31.563Z,47.00
2018-12-16T16:12:59.080Z,51.28
2018-12-16T16:15:26.600Z,47.55
2018-12-16T16:17:54.084Z,47.23
2018-12-16T16:20:21.593Z,45.35
2018-12-16T16:22:48.974Z,52.62
2018-12-16T16:25:16.936Z,42.65
2018-12-16T16:27:44.533Z,43.42
2018-12-16T16:30:11.991Z,46.68
2018-12-16T16:32:39.486Z,45.10
2018-12-16T16:35:07.197Z,48.85
2018-12-16T16:37:34.712Z,43.90
2018-12-16T16:40:02.327Z,31.50
2018-12-16T16:42:29.847Z,44.05
2018-12-16T16:44:57.437Z,39.92
2018-12-16T16:47:24.931Z,45.43
2018-12-16T16:49:52.532Z,39.45
2018-12-16T16:52:20.032Z,43.87
2018-12-16T16:54:47.654Z,44.30
2018-12-16T16:57:15.180Z,42.60
2018-12-16T16:59:42.755Z,40.28
2018-12-16T17:02:10.251Z,45.43
2018-12-16T17:04:37.761Z,45.43
2018-12-16T17:07:05.261Z,39.98
2018-12-16T17:09:32.794Z,46.18
2018-12-16T17:12:00.352Z,41.05
2018-12-16T17:14:27.828Z,39.78
2018-12-16T17:16:55.319Z,42.08
2018-12-16T17:19:23.195Z,44.50
2018-12-16T17:21:51.355Z,39.13
2018-12-16T17:24:18.941Z,42.43
2018-12-16T17:26:46.411Z,38.73
2018-12-16T17:29:13.895Z,41.98
2018-12-16T17:31:41.372Z,40.38
2018-12-16T17:34:08.911Z,44.05
2018-12-16T17:36:36.871Z,37.58
2018-12-16T17:39:07.732Z,40.40
2018-12-16T17:41:35.443Z,43.90
2018-12-16T17:44:03.600Z,39.73
2018-12-16T17:46:31.136Z,37.00
2018-12-16T17:48:58.608Z,42.17
2018-12-16T17:51:26.116Z,44.20
2018-12-16T17:53:53.590Z,37.73
2018-12-16T17:56:21.593Z,38.83
2018-12-16T17:58:49.098Z,42.23
2018-12-16T18:01:16.765Z,47.88
2018-12-16T18:03:44.291Z,35.52
2018-12-16T18:06:11.908Z,41.15
2018-12-16T18:08:39.336Z,40.55
2018-12-16T18:11:06.862Z,45.52
2018-12-16T18:13:35.144Z,43.38
2018-12-16T18:16:02.658Z,44.55
2018-12-16T18:18:30.000Z,41.30
2018-12-16T18:20:57.494Z,39.27
2018-12-16T18:23:29.595Z,49.50
2018-12-16T18:25:54.512Z,39.55
2018-12-16T18:28:22.026Z,41.68
2018-12-16T18:30:49.372Z,41.65
2018-12-16T18:33:16.740Z,41.40
2018-12-16T18:35:44.201Z,39.90
2018-12-16T18:38:11.788Z,42.25
2018-12-16T18:40:39.404Z,45.52
2018-12-16T18:43:06.979Z,45.10
2018-12-16T18:45:34.485Z,40.78
2018-12-16T18:48:02.111Z,45.08
2018-12-16T18:50:29.590Z,43.83
2018-12-16T18:52:57.071Z,41.50
2018-12-16T18:55:24.640Z,41.08
2018-12-16T18:57:52.159Z,42.98
2018-12-16T19:00:19.675Z,39.70
2018-12-16T19:02:47.212Z,46.18
2018-12-16T19:05:14.716Z,42.40
2018-12-16T19:07:42.170Z,43.40
2018-12-16T19:10:09.824Z,35.68
2018-12-16T19:12:37.309Z,43.20
2018-12-16T19:15:06.574Z,39.63
2018-12-16T19:17:34.214Z,46.58
2018-12-16T19:20:01.831Z,40.70
2018-12-16T19:22:29.308Z,40.43
2018-12-16T19:24:56.807Z,43.28
2018-12-16T19:27:24.269Z,38.95
2018-12-16T19:29:51.830Z,47.88
2018-12-16T19:32:19.307Z,40.70
2018-12-16T19:34:46.827Z,39.58
2018-12-16T19:37:14.297Z,39.78
2018-12-16T19:39:41.859Z,39.38
2018-12-16T19:42:09.589Z,47.55
2018-12-16T19:44:37.074Z,41.33
2018-12-16T19:47:04.468Z,31.40
2018-12-16T19:49:31.946Z,30.75
2018-12-16T19:51:59.353Z,39.33
2018-12-16T19:54:27.169Z,32.48
2018-12-16T19:56:54.670Z,30.17
2018-12-16T19:59:22.252Z,37.23
2018-12-16T20:01:49.739Z,36.05
2018-12-16T20:04:19.317Z,37.00
2018-12-16T20:06:47.646Z,39.50
2018-12-16T20:09:15.266Z,36.58
2018-12-16T20:11:42.875Z,40.40
2018-12-16T20:14:10.352Z,43.23
2018-12-16T20:16:37.749Z,37.80
2018-12-16T20:19:05.545Z,43.50
2018-12-16T20:21:33.151Z,44.33
2018-12-16T20:24:00.648Z,42.27
2018-12-16T20:26:28.279Z,45.85
2018-12-16T20:28:55.799Z,47.15
2018-12-16T20:31:23.329Z,38.98
2018-12-16T20:33:50.907Z,45.38
2018-12-16T20:36:18.551Z,52.15
2018-12-16T20:38:46.042Z,47.00
2018-12-16T20:41:13.571Z,54.10
2018-12-16T20:43:41.200Z,54.48
2018-12-16T20:46:08.981Z,45.20
2018-12-16T20:48:36.641Z,52.50
2018-12-16T20:51:04.335Z,46.98
2018-12-16T20:53:31.877Z,50.33
2018-12-16T20:55:59.407Z,47.95
2018-12-16T20:58:26.935Z,47.05
2018-12-16T21:00:54.704Z,45.63
2018-12-16T21:03:22.266Z,46.98
2018-12-16T21:05:49.905Z,46.75
2018-12-16T21:08:17.485Z,43.78
2018-12-16T21:10:44.946Z,46.65
2018-12-16T21:13:18.362Z,43.08
2018-12-16T21:15:51.511Z,37.60
2018-12-16T21:18:23.070Z,43.58
2018-12-16T21:20:51.074Z,41.00
2018-12-16T21:23:18.493Z,44.70
2018-12-16T21:25:46.233Z,41.37
2018-12-16T21:28:14.223Z,46.68
2018-12-16T21:30:41.699Z,45.80
2018-12-16T21:33:09.196Z,47.35
2018-12-16T21:35:36.845Z,39.38
2018-12-16T21:38:04.385Z,48.08
2018-12-16T21:40:31.799Z,45.50
2018-12-16T21:42:59.286Z,42.80
2018-12-16T21:45:26.828Z,42.90
2018-12-16T21:47:54.428Z,43.75
2018-12-16T21:50:21.956Z,44.15
2018-12-16T21:52:49.363Z,40.92
2018-12-16T21:55:16.861Z,44.42
2018-12-16T21:57:44.333Z,38.92
2018-12-16T22:00:12.050Z,41.45
2018-12-16T22:02:39.559Z,38.23
2018-12-16T22:05:08.786Z,40.92
2018-12-16T22:07:36.348Z,41.77
2018-12-16T22:10:04.939Z,45.78
2018-12-16T22:12:32.456Z,47.67
2018-12-16T22:14:59.990Z,42.45
2018-12-16T22:17:27.473Z,39.33
2018-12-16T22:19:54.985Z,42.85
2018-12-16T22:22:22.484Z,38.67
2018-12-16T22:24:49.984Z,45.03
2018-12-16T22:27:17.472Z,42.20
2018-12-16T22:29:45.040Z,40.55
2018-12-16T22:32:12.509Z,41.83
2018-12-16T22:34:40.012Z,39.00
2018-12-16T22:37:07.729Z,41.58
2018-12-16T22:39:35.184Z,40.43
2018-12-16T22:42:02.816Z,46.98
2018-12-16T22:44:30.304Z,44.80
2018-12-16T22:46:57.696Z,47.88
2018-12-16T22:49:25.194Z,40.50
2018-12-16T22:51:53.789Z,42.08
2018-12-16T22:54:21.564Z,46.75
2018-12-16T22:56:49.088Z,46.65
2018-12-16T22:59:16.658Z,47.55
2018-12-16T23:01:44.255Z,45.95
2018-12-16T23:04:11.828Z,51.15
2018-12-16T23:06:39.336Z,57.45
2018-12-16T23:09:07.028Z,56.85
2018-12-16T23:11:35.032Z,49.80
2018-12-16T23:14:02.716Z,55.52
2018-12-16T23:16:30.600Z,58.13
2018-12-16T23:18:58.227Z,52.50
2018-12-16T23:21:25.801Z,48.90
2018-12-16T23:23:53.412Z,54.18
2018-12-16T23:26:21.134Z,48.92
2018-12-16T23:28:48.797Z,52.93
2018-12-16T23:31:16.376Z,46.28
2018-12-16T23:33:44.138Z,47.73
2018-12-16T23:36:11.652Z,55.40
2018-12-16T23:38:39.211Z,49.93
2018-12-16T23:41:06.746Z,49.85
2018-12-16T23:43:34.433Z,55.65
2018-12-16T23:46:01.915Z,53.83
2018-12-16T23:48:29.406Z,51.33
2018-12-16T23:50:56.863Z,48.15
2018-12-16T23:53:24.346Z,56.35
2018-12-16T23:55:51.685Z,54.25
2018-12-16T23:58:19.098Z,54.63
